createdAt,value
2023-05-13T05:29:39.580Z,9.80
2023-05-13T05:32:22.878Z,9.80
2023-05-13T05:41:45.578Z,9.90
2023-05-13T05:44:37.838Z,10.00
2023-05-13T05:47:05.712Z,10.10
2023-05-13T05:49:33.253Z,10.20
2023-05-13T05:52:00.632Z,10.40
2023-05-13T05:54:28.616Z,10.50
2023-05-13T05:56:56.122Z,10.70
2023-05-13T05:59:23.287Z,11.00
2023-05-13T06:01:51.739Z,11.20
2023-05-13T06:07:15.703Z,11.60
2023-05-13T06:09:42.946Z,11.90
2023-05-13T06:12:09.778Z,12.20
2023-05-13T06:14:36.683Z,12.50
2023-05-13T06:17:03.768Z,12.60
2023-05-13T06:19:31.048Z,12.70
2023-05-13T06:21:57.826Z,13.00
2023-05-13T06:24:24.760Z,13.20
2023-05-13T06:26:51.648Z,13.30
2023-05-13T06:29:18.527Z,13.40
2023-05-13T06:31:45.743Z,13.60
2023-05-13T06:34:16.655Z,13.90
2023-05-13T06:36:44.241Z,14.00
2023-05-13T06:39:12.528Z,14.20
2023-05-13T06:41:42.990Z,14.40
2023-05-13T06:44:13.634Z,14.50
2023-05-13T06:46:45.412Z,14.60
2023-05-13T06:49:12.281Z,14.80
2023-05-13T06:51:39.053Z,14.90
2023-05-13T06:54:05.978Z,15.10
2023-05-13T06:56:32.862Z,15.20
2023-05-13T06:59:00.315Z,15.40
2023-05-13T07:01:38.722Z,15.50
2023-05-13T07:04:09.635Z,15.60
2023-05-13T07:06:36.668Z,15.70
2023-05-13T07:09:08.218Z,15.80
2023-05-13T07:11:36.360Z,15.90
2023-05-13T07:14:03.385Z,16.10
2023-05-13T07:16:30.335Z,16.20
2023-05-13T07:18:57.164Z,16.30
2023-05-13T07:21:24.079Z,16.30
2023-05-13T07:23:51.472Z,16.30
2023-05-13T07:26:18.461Z,16.30
2023-05-13T07:28:45.303Z,16.40
2023-05-13T07:31:12.238Z,16.50
2023-05-13T07:33:39.038Z,16.50
2023-05-13T07:36:06.393Z,16.60
2023-05-13T07:38:33.825Z,16.70
2023-05-13T07:41:01.956Z,16.80
2023-05-13T07:43:28.977Z,16.80
2023-05-13T07:45:56.158Z,16.90
2023-05-13T07:48:25.352Z,17.00
2023-05-13T07:50:52.722Z,17.10
2023-05-13T07:53:20.094Z,17.00
2023-05-13T07:55:49.531Z,17.10
2023-05-13T07:58:18.958Z,17.20
2023-05-13T08:00:49.693Z,17.30
2023-05-13T08:03:29.548Z,17.50
2023-05-13T08:05:59.624Z,17.60
2023-05-13T08:08:27.055Z,17.70
2023-05-13T08:10:58.097Z,17.80
2023-05-13T08:13:25.867Z,17.80
2023-05-13T08:15:52.984Z,17.70
2023-05-13T08:18:20.043Z,17.70
2023-05-13T08:20:47.025Z,17.80
2023-05-13T08:23:13.983Z,17.80
2023-05-13T08:25:40.768Z,17.80
2023-05-13T08:28:07.575Z,17.80
2023-05-13T08:30:34.338Z,17.90
2023-05-13T08:33:01.038Z,17.90
2023-05-13T08:35:27.899Z,17.90
2023-05-13T08:37:54.665Z,17.90
2023-05-13T08:40:21.507Z,18.00
2023-05-13T08:42:51.445Z,18.10
2023-05-13T08:45:21.183Z,18.10
2023-05-13T08:47:56.695Z,18.10
2023-05-13T08:50:23.767Z,18.10
2023-05-13T08:52:53.885Z,17.90
2023-05-13T08:55:21.314Z,17.90
2023-05-13T08:57:48.325Z,17.70
2023-05-13T09:00:16.585Z,17.80
2023-05-13T09:02:47.766Z,17.90
2023-05-13T09:05:16.094Z,18.00
2023-05-13T09:07:43.162Z,18.10
2023-05-13T09:10:10.810Z,18.20
2023-05-13T09:12:54.696Z,18.40
2023-05-13T09:15:26.831Z,18.60
2023-05-13T09:18:04.664Z,18.60
2023-05-13T09:20:31.904Z,18.80
2023-05-13T09:23:04.344Z,19.00
2023-05-13T09:25:31.990Z,19.20
2023-05-13T09:28:01.011Z,19.30
2023-05-13T09:30:29.835Z,19.50
2023-05-13T09:33:16.981Z,19.80
2023-05-13T09:35:52.835Z,20.00
2023-05-13T09:38:29.090Z,19.90
2023-05-13T09:40:58.188Z,20.00
2023-05-13T09:43:27.251Z,20.10
2023-05-13T09:46:05.273Z,20.10
2023-05-13T09:48:34.429Z,20.20
2023-05-13T09:51:01.223Z,20.10
2023-05-13T09:53:28.486Z,20.00
2023-05-13T09:55:57.616Z,19.90
2023-05-13T09:58:25.781Z,20.10
2023-05-13T10:00:52.883Z,20.20
2023-05-13T10:03:19.779Z,20.30
2023-05-13T10:05:47.527Z,20.30
2023-05-13T10:08:15.431Z,20.50
2023-05-13T10:10:45.716Z,20.60
2023-05-13T10:13:15.041Z,20.90
2023-05-13T10:15:52.422Z,21.20
2023-05-13T10:18:21.103Z,21.40
2023-05-13T10:20:53.062Z,21.20
2023-05-13T10:23:21.723Z,21.10
2023-05-13T10:25:49.207Z,21.40
2023-05-13T10:28:16.719Z,21.60
2023-05-13T10:30:44.514Z,21.90
2023-05-13T10:33:11.722Z,22.20
2023-05-13T10:35:43.048Z,22.50
2023-05-13T10:38:13.083Z,22.50
2023-05-13T10:41:09.473Z,22.30
2023-05-13T10:43:37.352Z,21.90
2023-05-13T10:46:05.027Z,21.70
2023-05-13T10:48:39.811Z,21.80
2023-05-13T10:51:08.342Z,22.00
2023-05-13T10:53:52.337Z,22.30
2023-05-13T10:56:28.263Z,22.60
2023-05-13T10:59:04.316Z,22.60
2023-05-13T11:01:34.175Z,22.60
2023-05-13T11:04:05.773Z,22.50
2023-05-13T11:06:41.255Z,22.10
2023-05-13T11:09:14.073Z,21.90
2023-05-13T11:11:41.651Z,22.10
2023-05-13T11:14:14.031Z,22.40
2023-05-13T11:17:07.958Z,22.60
2023-05-13T11:19:45.074Z,22.70
2023-05-13T11:22:19.284Z,22.40
2023-05-13T11:25:02.718Z,21.80
2023-05-13T11:27:37.578Z,21.30
2023-05-13T11:30:07.796Z,20.80
2023-05-13T11:32:58.163Z,20.60
2023-05-13T11:35:32.767Z,20.40
2023-05-13T11:38:01.887Z,20.50
2023-05-13T11:40:33.924Z,20.40
2023-05-13T11:43:01.837Z,20.10
2023-05-13T11:45:29.927Z,19.90
2023-05-13T11:47:57.607Z,19.80
2023-05-13T11:50:35.522Z,19.70
2023-05-13T11:53:02.404Z,19.60
2023-05-13T11:55:35.599Z,19.60
2023-05-13T11:58:03.390Z,19.60
2023-05-13T12:00:34.757Z,19.50
2023-05-13T12:03:11.762Z,19.50
2023-05-13T12:05:39.959Z,19.40
2023-05-13T12:08:10.644Z,19.30
2023-05-13T12:10:43.614Z,19.30
2023-05-13T12:13:10.633Z,19.30
2023-05-13T12:15:37.680Z,19.30
2023-05-13T12:18:04.759Z,19.30
2023-05-13T12:20:33.303Z,19.40
2023-05-13T12:23:01.028Z,19.40
2023-05-13T12:25:43.101Z,19.40
2023-05-13T12:28:18.631Z,19.50
2023-05-13T12:31:00.399Z,19.40
2023-05-13T12:33:32.883Z,19.50
2023-05-13T12:36:25.906Z,19.60
2023-05-13T12:39:03.323Z,19.60
2023-05-13T12:41:38.092Z,19.60
2023-05-13T12:44:10.455Z,19.70
2023-05-13T12:46:37.779Z,19.60
2023-05-13T12:49:06.065Z,19.60
2023-05-13T12:51:35.811Z,19.50
2023-05-13T12:54:02.643Z,19.60
2023-05-13T12:56:29.358Z,19.60
2023-05-13T12:58:56.295Z,19.70
2023-05-13T13:01:23.331Z,19.70
2023-05-13T13:03:50.767Z,19.50
2023-05-13T13:06:18.113Z,19.50
2023-05-13T13:08:44.962Z,19.50
2023-05-13T13:11:18.438Z,19.50
2023-05-13T13:13:46.523Z,19.50
2023-05-13T13:16:13.507Z,19.50
2023-05-13T13:18:40.960Z,19.60
2023-05-13T13:21:07.838Z,19.50
2023-05-13T13:23:34.977Z,19.50
2023-05-13T13:26:01.897Z,19.50
2023-05-13T13:28:29.169Z,19.60
2023-05-13T13:30:56.321Z,19.50
2023-05-13T13:33:23.178Z,19.40
2023-05-13T13:35:50.035Z,19.30
2023-05-13T13:38:16.858Z,19.30
2023-05-13T13:40:43.614Z,19.20
2023-05-13T13:43:10.425Z,19.20
2023-05-13T13:45:37.316Z,19.30
2023-05-13T13:48:04.300Z,19.20
2023-05-13T13:50:31.249Z,19.30
2023-05-13T13:52:57.969Z,19.30
2023-05-13T13:55:24.971Z,19.20
2023-05-13T13:57:52.232Z,19.20
2023-05-13T14:00:19.492Z,19.30
2023-05-13T14:02:46.600Z,19.30
2023-05-13T14:05:13.740Z,19.20
2023-05-13T14:07:41.210Z,19.20
2023-05-13T14:10:08.831Z,19.20
2023-05-13T14:12:36.416Z,19.10
2023-05-13T14:15:03.797Z,19.00
2023-05-13T14:17:32.402Z,19.00
2023-05-13T14:19:59.229Z,19.00
2023-05-13T14:22:26.165Z,19.00
2023-05-13T14:24:53.346Z,19.10
2023-05-13T14:27:21.628Z,19.00
2023-05-13T14:29:49.187Z,18.90
2023-05-13T14:32:16.543Z,19.00
2023-05-13T14:34:43.371Z,19.00
2023-05-13T14:37:10.296Z,18.90
2023-05-13T14:39:55.845Z,18.80
2023-05-13T14:42:22.627Z,18.70
2023-05-13T14:44:49.352Z,18.70
2023-05-13T14:47:16.214Z,18.60
2023-05-13T14:49:43.027Z,18.60
2023-05-13T14:52:09.807Z,18.60
2023-05-13T14:54:37.878Z,18.60
2023-05-13T14:57:06.440Z,18.60
2023-05-13T14:59:33.998Z,18.60
2023-05-13T15:02:02.640Z,18.60
2023-05-13T15:04:29.499Z,18.60
2023-05-13T15:06:56.461Z,18.70
2023-05-13T15:09:23.247Z,18.70
2023-05-13T15:11:50.177Z,18.60
2023-05-13T15:14:17.993Z,18.60
2023-05-13T15:16:44.969Z,18.60
2023-05-13T15:19:11.942Z,18.70
2023-05-13T15:21:38.861Z,18.70
2023-05-13T15:24:06.034Z,18.70
2023-05-13T15:26:32.822Z,18.80
2023-05-13T15:28:59.649Z,18.80
2023-05-13T15:31:26.517Z,18.80
2023-05-13T15:33:53.444Z,18.80
2023-05-13T15:36:20.232Z,18.90
2023-05-13T15:38:47.177Z,18.90
2023-05-13T15:41:14.056Z,18.80
2023-05-13T15:43:40.775Z,18.80
2023-05-13T15:46:07.828Z,18.70
2023-05-13T15:48:34.931Z,18.70
2023-05-13T15:51:03.544Z,18.60
2023-05-13T15:53:30.598Z,18.60
2023-05-13T15:55:57.439Z,18.60
2023-05-13T15:58:24.293Z,18.50
2023-05-13T16:00:51.080Z,18.50
2023-05-13T16:03:17.951Z,18.50
2023-05-13T16:05:44.739Z,18.50
2023-05-13T16:08:11.611Z,18.50
2023-05-13T16:10:38.430Z,18.50
2023-05-13T16:13:05.260Z,18.50
2023-05-13T16:15:32.137Z,18.60
2023-05-13T16:17:58.926Z,18.50
2023-05-13T16:20:26.027Z,18.50
2023-05-13T16:22:55.528Z,18.40
2023-05-13T16:25:24.231Z,18.40
2023-05-13T16:27:51.813Z,18.40
2023-05-13T16:30:18.697Z,18.30
2023-05-13T16:32:48.873Z,18.20
2023-05-13T16:35:16.049Z,18.20
2023-05-13T16:37:42.873Z,18.20
2023-05-13T16:40:10.563Z,18.30
2023-05-13T16:42:37.361Z,18.20
2023-05-13T16:45:04.413Z,18.20
2023-05-13T16:47:31.183Z,18.20
2023-05-13T16:49:58.216Z,18.10
2023-05-13T16:52:25.954Z,18.00
2023-05-13T16:54:53.692Z,18.00
2023-05-13T16:57:22.301Z,18.00
2023-05-13T16:59:49.086Z,18.00
2023-05-13T17:02:15.866Z,17.90
2023-05-13T17:04:42.578Z,17.90
2023-05-13T17:07:10.053Z,17.90
2023-05-13T17:09:37.369Z,17.90
2023-05-13T17:12:04.246Z,17.90
2023-05-13T17:14:31.203Z,17.90
2023-05-13T17:16:58.020Z,17.90
2023-05-13T17:19:24.854Z,17.90
2023-05-13T17:21:51.602Z,17.80
2023-05-13T17:24:22.366Z,17.90
2023-05-13T17:26:49.993Z,17.90
2023-05-13T17:29:16.681Z,17.90
2023-05-13T17:31:43.506Z,17.80
2023-05-13T17:34:10.367Z,17.80
2023-05-13T17:36:37.092Z,17.70
2023-05-13T17:39:04.536Z,17.70
2023-05-13T17:41:31.262Z,17.60
2023-05-13T17:43:58.028Z,17.60
2023-05-13T17:46:24.724Z,17.60
2023-05-13T17:48:52.462Z,17.60
2023-05-13T17:51:19.299Z,17.50
2023-05-13T17:53:46.154Z,17.40
2023-05-13T17:56:13.117Z,17.40
2023-05-13T17:58:39.918Z,17.30
2023-05-13T18:01:07.074Z,17.20
2023-05-13T18:03:34.724Z,17.20
2023-05-13T18:06:01.591Z,17.10
2023-05-13T18:08:28.536Z,17.00
2023-05-13T18:10:55.370Z,16.90
2023-05-13T18:13:22.199Z,16.90
2023-05-13T18:15:49.065Z,16.80
2023-05-13T18:18:17.595Z,16.70
2023-05-13T18:20:44.311Z,16.70
2023-05-13T18:23:11.119Z,16.60
2023-05-13T18:25:45.372Z,16.60
2023-05-13T18:28:19.100Z,16.60
2023-05-13T18:30:46.027Z,16.60
2023-05-13T18:33:12.815Z,16.50
2023-05-13T18:35:40.500Z,16.50
2023-05-13T18:38:07.360Z,16.40
2023-05-13T18:40:34.267Z,16.40
2023-05-13T18:43:01.047Z,16.30
2023-05-13T18:45:27.900Z,16.30
2023-05-13T18:47:55.060Z,16.20
2023-05-13T18:50:22.137Z,16.20
2023-05-13T18:52:49.193Z,16.10
2023-05-13T18:55:16.417Z,16.10
2023-05-13T18:57:43.251Z,16.10
2023-05-13T19:00:10.789Z,16.00
2023-05-13T19:02:37.867Z,16.00
2023-05-13T19:05:05.813Z,16.00
2023-05-13T19:07:32.674Z,15.90
2023-05-13T19:09:59.502Z,15.90
2023-05-13T19:12:27.375Z,15.80
2023-05-13T19:14:54.205Z,15.80
2023-05-13T19:17:21.460Z,15.70
2023-05-13T19:19:48.497Z,15.60
2023-05-13T19:22:15.579Z,15.60
2023-05-13T19:24:42.570Z,15.60
2023-05-13T19:27:09.499Z,15.50
2023-05-13T19:29:36.563Z,15.50
2023-05-13T19:32:03.612Z,15.50
2023-05-13T19:34:30.596Z,15.40
2023-05-13T19:36:57.653Z,15.40
2023-05-13T19:39:24.510Z,15.40
2023-05-13T19:41:51.404Z,15.30
2023-05-13T19:44:18.321Z,15.20
2023-05-13T19:46:45.423Z,15.20
2023-05-13T19:49:12.285Z,15.20
2023-05-13T19:51:39.505Z,15.10
2023-05-13T19:54:22.436Z,15.10
2023-05-13T19:56:54.011Z,15.00
